sensor_id;sensor_type;location;lat;lon;timestamp;P1;durP1;ratioP1;P2;durP2;ratioP2
8737;SDS011;4405;49.272;8.590;2023-02-01T00:00:56;2.97;;;2.77;;
8737;SDS011;4405;49.272;8.590;2023-02-01T00:03:23;3.33;;;3.13;;
8737;SDS011;4405;49.272;8.590;2023-02-01T00:05:54;4.27;;;3.30;;
8737;SDS011;4405;49.272;8.590;2023-02-01T00:08:22;3.53;;;3.20;;
8737;SDS011;4405;49.272;8.590;2023-02-01T00:10:48;3.50;;;3.20;;
8737;SDS011;4405;49.272;8.590;2023-02-01T00:13:14;4.00;;;3.17;;
8737;SDS011;4405;49.272;8.590;2023-02-01T00:15:41;3.70;;;2.90;;
8737;SDS011;4405;49.272;8.590;2023-02-01T00:18:07;4.70;;;3.20;;
8737;SDS011;4405;49.272;8.590;2023-02-01T00:20:33;4.00;;;3.40;;
8737;SDS011;4405;49.272;8.590;2023-02-01T00:23:00;3.50;;;3.17;;
8737;SDS011;4405;49.272;8.590;2023-02-01T00:25:27;4.20;;;3.80;;
8737;SDS011;4405;49.272;8.590;2023-02-01T00:27:54;3.60;;;3.30;;
8737;SDS011;4405;49.272;8.590;2023-02-01T00:30:21;3.73;;;3.07;;
8737;SDS011;4405;49.272;8.590;2023-02-01T00:32:48;3.60;;;3.30;;
8737;SDS011;4405;49.272;8.590;2023-02-01T00:35:14;4.17;;;3.17;;
8737;SDS011;4405;49.272;8.590;2023-02-01T00:37:40;3.73;;;3.43;;
8737;SDS011;4405;49.272;8.590;2023-02-01T00:40:07;3.60;;;3.40;;
8737;SDS011;4405;49.272;8.590;2023-02-01T00:42:35;4.10;;;3.07;;
8737;SDS011;4405;49.272;8.590;2023-02-01T00:45:01;3.37;;;3.17;;
8737;SDS011;4405;49.272;8.590;2023-02-01T00:47:28;3.33;;;3.00;;
8737;SDS011;4405;49.272;8.590;2023-02-01T00:49:55;3.47;;;3.00;;
8737;SDS011;4405;49.272;8.590;2023-02-01T00:52:21;3.10;;;2.90;;
8737;SDS011;4405;49.272;8.590;2023-02-01T00:54:48;3.20;;;2.93;;
8737;SDS011;4405;49.272;8.590;2023-02-01T00:57:14;3.20;;;2.90;;
8737;SDS011;4405;49.272;8.590;2023-02-01T00:59:42;3.80;;;3.10;;
8737;SDS011;4405;49.272;8.590;2023-02-01T01:02:08;3.57;;;3.30;;
8737;SDS011;4405;49.272;8.590;2023-02-01T01:04:35;3.50;;;3.20;;
8737;SDS011;4405;49.272;8.590;2023-02-01T01:07:02;3.33;;;3.13;;
8737;SDS011;4405;49.272;8.590;2023-02-01T01:09:28;2.90;;;2.70;;
8737;SDS011;4405;49.272;8.590;2023-02-01T01:11:55;3.27;;;3.07;;
8737;SDS011;4405;49.272;8.590;2023-02-01T01:14:21;3.10;;;2.80;;
8737;SDS011;4405;49.272;8.590;2023-02-01T01:16:49;3.60;;;2.83;;
8737;SDS011;4405;49.272;8.590;2023-02-01T01:19:15;3.53;;;3.20;;
8737;SDS011;4405;49.272;8.590;2023-02-01T01:21:42;3.03;;;2.83;;
8737;SDS011;4405;49.272;8.590;2023-02-01T01:24:08;4.73;;;3.53;;
8737;SDS011;4405;49.272;8.590;2023-02-01T01:26:34;3.60;;;3.30;;
8737;SDS011;4405;49.272;8.590;2023-02-01T01:29:01;3.33;;;3.03;;
8737;SDS011;4405;49.272;8.590;2023-02-01T01:31:27;4.17;;;2.87;;
8737;SDS011;4405;49.272;8.590;2023-02-01T01:33:56;3.17;;;2.97;;
8737;SDS011;4405;49.272;8.590;2023-02-01T01:36:22;4.83;;;3.20;;
8737;SDS011;4405;49.272;8.590;2023-02-01T01:38:49;4.63;;;2.90;;
8737;SDS011;4405;49.272;8.590;2023-02-01T01:41:16;3.70;;;3.03;;
8737;SDS011;4405;49.272;8.590;2023-02-01T01:43:47;3.07;;;2.87;;
8737;SDS011;4405;49.272;8.590;2023-02-01T01:46:15;3.17;;;2.90;;
8737;SDS011;4405;49.272;8.590;2023-02-01T01:48:41;3.50;;;3.10;;
8737;SDS011;4405;49.272;8.590;2023-02-01T01:51:10;4.00;;;3.70;;
8737;SDS011;4405;49.272;8.590;2023-02-01T01:53:38;3.70;;;3.40;;
8737;SDS011;4405;49.272;8.590;2023-02-01T01:56:07;3.50;;;3.20;;
8737;SDS011;4405;49.272;8.590;2023-02-01T01:58:33;3.50;;;3.30;;
8737;SDS011;4405;49.272;8.590;2023-02-01T02:01:00;3.40;;;3.20;;
8737;SDS011;4405;49.272;8.590;2023-02-01T02:03:27;3.20;;;3.00;;
8737;SDS011;4405;49.272;8.590;2023-02-01T02:05:58;3.37;;;3.17;;
8737;SDS011;4405;49.272;8.590;2023-02-01T02:08:26;3.43;;;3.10;;
8737;SDS011;4405;49.272;8.590;2023-02-01T02:10:53;6.90;;;3.13;;
8737;SDS011;4405;49.272;8.590;2023-02-01T02:13:25;3.40;;;3.10;;
8737;SDS011;4405;49.272;8.590;2023-02-01T02:15:55;5.47;;;3.40;;
8737;SDS011;4405;49.272;8.590;2023-02-01T02:18:26;3.33;;;3.10;;
8737;SDS011;4405;49.272;8.590;2023-02-01T02:21:02;3.23;;;3.03;;
8737;SDS011;4405;49.272;8.590;2023-02-01T02:23:38;3.37;;;3.07;;
8737;SDS011;4405;49.272;8.590;2023-02-01T02:29:15;4.17;;;3.10;;
8737;SDS011;4405;49.272;8.590;2023-02-01T02:31:58;3.10;;;2.90;;
8737;SDS011;4405;49.272;8.590;2023-02-01T02:34:30;2.83;;;2.57;;
8737;SDS011;4405;49.272;8.590;2023-02-01T02:37:00;3.80;;;3.13;;
8737;SDS011;4405;49.272;8.590;2023-02-01T02:39:33;2.90;;;2.70;;
8737;SDS011;4405;49.272;8.590;2023-02-01T02:42:02;2.93;;;2.73;;
8737;SDS011;4405;49.272;8.590;2023-02-01T02:44:49;3.20;;;2.90;;
8737;SDS011;4405;49.272;8.590;2023-02-01T02:47:36;4.63;;;3.07;;
8737;SDS011;4405;49.272;8.590;2023-02-01T02:50:10;3.17;;;2.93;;
8737;SDS011;4405;49.272;8.590;2023-02-01T02:52:57;3.07;;;2.60;;
8737;SDS011;4405;49.272;8.590;2023-02-01T02:55:42;3.97;;;2.63;;
8737;SDS011;4405;49.272;8.590;2023-02-01T02:58:08;3.33;;;2.70;;
8737;SDS011;4405;49.272;8.590;2023-02-01T03:00:54;3.10;;;2.90;;
8737;SDS011;4405;49.272;8.590;2023-02-01T03:03:38;2.73;;;2.63;;
8737;SDS011;4405;49.272;8.590;2023-02-01T03:06:24;3.00;;;2.80;;
8737;SDS011;4405;49.272;8.590;2023-02-01T03:08:51;3.20;;;3.00;;
8737;SDS011;4405;49.272;8.590;2023-02-01T03:11:22;3.20;;;3.00;;
8737;SDS011;4405;49.272;8.590;2023-02-01T03:14:09;3.30;;;3.00;;
8737;SDS011;4405;49.272;8.590;2023-02-01T03:16:36;3.27;;;3.07;;
8737;SDS011;4405;49.272;8.590;2023-02-01T03:19:05;3.70;;;3.40;;
8737;SDS011;4405;49.272;8.590;2023-02-01T03:21:35;3.70;;;3.13;;
8737;SDS011;4405;49.272;8.590;2023-02-01T03:24:04;4.77;;;3.30;;
8737;SDS011;4405;49.272;8.590;2023-02-01T03:26:33;3.67;;;3.20;;
8737;SDS011;4405;49.272;8.590;2023-02-01T03:29:05;3.43;;;3.07;;
8737;SDS011;4405;49.272;8.590;2023-02-01T03:31:34;3.10;;;2.80;;
8737;SDS011;4405;49.272;8.590;2023-02-01T03:34:00;3.33;;;3.10;;
8737;SDS011;4405;49.272;8.590;2023-02-01T03:36:28;3.47;;;3.17;;
8737;SDS011;4405;49.272;8.590;2023-02-01T03:38:58;3.77;;;3.23;;
8737;SDS011;4405;49.272;8.590;2023-02-01T03:41:27;2.77;;;2.60;;
8737;SDS011;4405;49.272;8.590;2023-02-01T03:43:55;3.20;;;2.90;;
8737;SDS011;4405;49.272;8.590;2023-02-01T03:46:26;2.80;;;2.60;;
8737;SDS011;4405;49.272;8.590;2023-02-01T03:48:57;3.17;;;2.90;;
8737;SDS011;4405;49.272;8.590;2023-02-01T03:51:26;3.00;;;2.80;;
8737;SDS011;4405;49.272;8.590;2023-02-01T03:53:52;3.00;;;2.80;;
8737;SDS011;4405;49.272;8.590;2023-02-01T03:56:21;5.17;;;2.60;;
8737;SDS011;4405;49.272;8.590;2023-02-01T03:58:47;3.57;;;2.77;;
8737;SDS011;4405;49.272;8.590;2023-02-01T04:01:23;3.10;;;2.80;;
8737;SDS011;4405;49.272;8.590;2023-02-01T04:03:50;3.37;;;2.73;;
8737;SDS011;4405;49.272;8.590;2023-02-01T04:06:16;3.17;;;2.90;;
8737;SDS011;4405;49.272;8.590;2023-02-01T04:08:43;3.17;;;2.80;;
8737;SDS011;4405;49.272;8.590;2023-02-01T04:11:09;4.60;;;3.10;;
8737;SDS011;4405;49.272;8.590;2023-02-01T04:13:37;3.77;;;3.00;;
8737;SDS011;4405;49.272;8.590;2023-02-01T04:16:03;3.07;;;2.83;;
8737;SDS011;4405;49.272;8.590;2023-02-01T04:18:30;4.37;;;3.20;;
8737;SDS011;4405;49.272;8.590;2023-02-01T04:20:56;3.23;;;2.80;;
8737;SDS011;4405;49.272;8.590;2023-02-01T04:23:22;3.20;;;2.93;;
8737;SDS011;4405;49.272;8.590;2023-02-01T04:25:48;3.43;;;2.80;;
8737;SDS011;4405;49.272;8.590;2023-02-01T04:28:15;4.20;;;2.97;;
8737;SDS011;4405;49.272;8.590;2023-02-01T04:30:43;2.90;;;2.67;;
8737;SDS011;4405;49.272;8.590;2023-02-01T04:33:09;3.07;;;2.80;;
8737;SDS011;4405;49.272;8.590;2023-02-01T04:35:38;2.60;;;2.40;;
8737;SDS011;4405;49.272;8.590;2023-02-01T04:38:05;2.33;;;2.23;;
8737;SDS011;4405;49.272;8.590;2023-02-01T04:40:32;2.70;;;2.60;;
8737;SDS011;4405;49.272;8.590;2023-02-01T04:42:58;3.00;;;2.80;;
8737;SDS011;4405;49.272;8.590;2023-02-01T04:45:26;2.70;;;2.50;;
8737;SDS011;4405;49.272;8.590;2023-02-01T04:47:54;3.00;;;2.73;;
8737;SDS011;4405;49.272;8.590;2023-02-01T04:50:20;3.07;;;2.63;;
8737;SDS011;4405;49.272;8.590;2023-02-01T04:52:46;2.83;;;2.40;;
8737;SDS011;4405;49.272;8.590;2023-02-01T04:55:12;2.60;;;2.40;;
8737;SDS011;4405;49.272;8.590;2023-02-01T04:57:39;2.33;;;2.17;;
8737;SDS011;4405;49.272;8.590;2023-02-01T05:00:06;2.57;;;2.37;;
8737;SDS011;4405;49.272;8.590;2023-02-01T05:02:33;2.73;;;2.40;;
8737;SDS011;4405;49.272;8.590;2023-02-01T05:05:01;2.60;;;2.40;;
8737;SDS011;4405;49.272;8.590;2023-02-01T05:07:28;2.30;;;2.10;;
8737;SDS011;4405;49.272;8.590;2023-02-01T05:09:54;2.23;;;1.97;;
8737;SDS011;4405;49.272;8.590;2023-02-01T05:12:20;2.33;;;2.20;;
8737;SDS011;4405;49.272;8.590;2023-02-01T05:15:05;2.50;;;2.30;;
8737;SDS011;4405;49.272;8.590;2023-02-01T05:17:32;3.07;;;2.40;;
8737;SDS011;4405;49.272;8.590;2023-02-01T05:19:58;2.73;;;2.53;;
8737;SDS011;4405;49.272;8.590;2023-02-01T05:22:26;3.10;;;2.47;;
8737;SDS011;4405;49.272;8.590;2023-02-01T05:24:52;3.33;;;2.20;;
8737;SDS011;4405;49.272;8.590;2023-02-01T05:27:18;2.63;;;2.43;;
8737;SDS011;4405;49.272;8.590;2023-02-01T05:29:45;2.57;;;2.23;;
8737;SDS011;4405;49.272;8.590;2023-02-01T05:32:11;2.90;;;2.70;;
8737;SDS011;4405;49.272;8.590;2023-02-01T05:34:38;3.53;;;2.80;;
8737;SDS011;4405;49.272;8.590;2023-02-01T05:37:04;2.97;;;2.67;;
8737;SDS011;4405;49.272;8.590;2023-02-01T05:39:32;2.87;;;2.70;;
8737;SDS011;4405;49.272;8.590;2023-02-01T05:41:58;3.43;;;2.53;;
8737;SDS011;4405;49.272;8.590;2023-02-01T05:44:24;2.77;;;2.57;;
8737;SDS011;4405;49.272;8.590;2023-02-01T05:46:51;2.63;;;2.53;;
8737;SDS011;4405;49.272;8.590;2023-02-01T05:49:18;2.63;;;2.43;;
8737;SDS011;4405;49.272;8.590;2023-02-01T05:51:44;3.43;;;2.93;;
8737;SDS011;4405;49.272;8.590;2023-02-01T05:54:10;4.50;;;3.77;;
8737;SDS011;4405;49.272;8.590;2023-02-01T05:56:38;3.87;;;3.47;;
8737;SDS011;4405;49.272;8.590;2023-02-01T05:59:05;8.10;;;5.77;;
8737;SDS011;4405;49.272;8.590;2023-02-01T06:01:32;13.40;;;8.57;;
8737;SDS011;4405;49.272;8.590;2023-02-01T06:03:58;11.90;;;6.97;;
8737;SDS011;4405;49.272;8.590;2023-02-01T06:06:24;6.10;;;4.03;;
8737;SDS011;4405;49.272;8.590;2023-02-01T06:08:51;3.40;;;3.10;;
8737;SDS011;4405;49.272;8.590;2023-02-01T06:11:17;4.40;;;2.90;;
8737;SDS011;4405;49.272;8.590;2023-02-01T06:13:45;4.77;;;3.33;;
8737;SDS011;4405;49.272;8.590;2023-02-01T06:16:11;3.67;;;3.27;;
8737;SDS011;4405;49.272;8.590;2023-02-01T06:18:40;4.40;;;3.47;;
8737;SDS011;4405;49.272;8.590;2023-02-01T06:21:06;3.40;;;3.10;;
8737;SDS011;4405;49.272;8.590;2023-02-01T06:23:32;3.37;;;3.07;;
8737;SDS011;4405;49.272;8.590;2023-02-01T06:25:59;4.67;;;3.53;;
8737;SDS011;4405;49.272;8.590;2023-02-01T06:28:26;4.27;;;3.60;;
8737;SDS011;4405;49.272;8.590;2023-02-01T06:30:54;6.27;;;3.97;;
8737;SDS011;4405;49.272;8.590;2023-02-01T06:33:22;4.20;;;3.80;;
8737;SDS011;4405;49.272;8.590;2023-02-01T06:35:49;4.97;;;4.00;;
8737;SDS011;4405;49.272;8.590;2023-02-01T06:38:22;3.80;;;3.50;;
8737;SDS011;4405;49.272;8.590;2023-02-01T06:40:51;7.53;;;3.67;;
8737;SDS011;4405;49.272;8.590;2023-02-01T06:43:18;4.43;;;4.03;;
8737;SDS011;4405;49.272;8.590;2023-02-01T06:45:44;5.57;;;3.50;;
8737;SDS011;4405;49.272;8.590;2023-02-01T06:48:12;4.43;;;3.83;;
8737;SDS011;4405;49.272;8.590;2023-02-01T06:50:38;7.03;;;4.33;;
8737;SDS011;4405;49.272;8.590;2023-02-01T06:53:04;6.93;;;4.40;;
8737;SDS011;4405;49.272;8.590;2023-02-01T06:55:31;7.80;;;4.07;;
8737;SDS011;4405;49.272;8.590;2023-02-01T06:57:57;5.13;;;3.90;;
8737;SDS011;4405;49.272;8.590;2023-02-01T07:00:23;6.10;;;4.10;;
8737;SDS011;4405;49.272;8.590;2023-02-01T07:02:50;9.93;;;4.80;;
8737;SDS011;4405;49.272;8.590;2023-02-01T07:05:18;7.60;;;4.30;;
8737;SDS011;4405;49.272;8.590;2023-02-01T07:07:44;10.00;;;4.27;;
8737;SDS011;4405;49.272;8.590;2023-02-01T07:10:11;10.70;;;4.33;;
8737;SDS011;4405;49.272;8.590;2023-02-01T07:12:37;4.57;;;3.60;;
8737;SDS011;4405;49.272;8.590;2023-02-01T07:15:04;23.57;;;4.77;;
8737;SDS011;4405;49.272;8.590;2023-02-01T07:17:30;13.50;;;4.27;;
8737;SDS011;4405;49.272;8.590;2023-02-01T07:19:57;8.07;;;3.50;;
8737;SDS011;4405;49.272;8.590;2023-02-01T07:22:26;4.67;;;3.23;;
8737;SDS011;4405;49.272;8.590;2023-02-01T07:24:52;4.53;;;3.30;;
8737;SDS011;4405;49.272;8.590;2023-02-01T07:27:18;5.83;;;3.60;;
8737;SDS011;4405;49.272;8.590;2023-02-01T07:29:45;8.63;;;4.17;;
8737;SDS011;4405;49.272;8.590;2023-02-01T07:32:12;14.07;;;4.57;;
8737;SDS011;4405;49.272;8.590;2023-02-01T07:34:38;32.00;;;5.23;;
8737;SDS011;4405;49.272;8.590;2023-02-01T07:37:04;21.73;;;4.43;;
8737;SDS011;4405;49.272;8.590;2023-02-01T07:39:32;12.23;;;4.33;;
8737;SDS011;4405;49.272;8.590;2023-02-01T07:41:59;44.43;;;6.00;;
8737;SDS011;4405;49.272;8.590;2023-02-01T07:44:25;21.50;;;5.00;;
8737;SDS011;4405;49.272;8.590;2023-02-01T07:46:51;16.87;;;4.33;;
8737;SDS011;4405;49.272;8.590;2023-02-01T07:49:18;15.40;;;4.27;;
8737;SDS011;4405;49.272;8.590;2023-02-01T07:51:44;16.50;;;4.80;;
8737;SDS011;4405;49.272;8.590;2023-02-01T07:54:10;21.80;;;5.10;;
8737;SDS011;4405;49.272;8.590;2023-02-01T07:56:38;31.57;;;5.63;;
8737;SDS011;4405;49.272;8.590;2023-02-01T07:59:04;26.33;;;5.07;;
8737;SDS011;4405;49.272;8.590;2023-02-01T08:01:32;34.60;;;5.63;;
8737;SDS011;4405;49.272;8.590;2023-02-01T08:03:58;17.17;;;4.60;;
8737;SDS011;4405;49.272;8.590;2023-02-01T08:06:25;14.17;;;4.73;;
8737;SDS011;4405;49.272;8.590;2023-02-01T08:08:51;28.03;;;5.00;;
8737;SDS011;4405;49.272;8.590;2023-02-01T08:11:18;16.50;;;5.20;;
8737;SDS011;4405;49.272;8.590;2023-02-01T08:13:47;22.00;;;5.80;;
8737;SDS011;4405;49.272;8.590;2023-02-01T08:16:14;8.30;;;4.33;;
8737;SDS011;4405;49.272;8.590;2023-02-01T08:18:40;12.73;;;5.03;;
8737;SDS011;4405;49.272;8.590;2023-02-01T08:21:08;9.10;;;4.90;;
8737;SDS011;4405;49.272;8.590;2023-02-01T08:23:35;11.50;;;4.97;;
8737;SDS011;4405;49.272;8.590;2023-02-01T08:26:05;14.43;;;5.30;;
8737;SDS011;4405;49.272;8.590;2023-02-01T08:28:32;12.33;;;4.80;;
8737;SDS011;4405;49.272;8.590;2023-02-01T08:31:02;12.77;;;5.27;;
8737;SDS011;4405;49.272;8.590;2023-02-01T08:33:29;14.63;;;4.67;;
8737;SDS011;4405;49.272;8.590;2023-02-01T08:35:55;21.97;;;5.87;;
8737;SDS011;4405;49.272;8.590;2023-02-01T08:38:22;11.23;;;5.10;;
8737;SDS011;4405;49.272;8.590;2023-02-01T08:40:48;9.43;;;4.43;;
8737;SDS011;4405;49.272;8.590;2023-02-01T08:43:14;9.20;;;4.90;;
8737;SDS011;4405;49.272;8.590;2023-02-01T08:45:41;7.07;;;4.27;;
8737;SDS011;4405;49.272;8.590;2023-02-01T08:48:08;14.47;;;4.70;;
8737;SDS011;4405;49.272;8.590;2023-02-01T08:50:35;7.00;;;3.90;;
8737;SDS011;4405;49.272;8.590;2023-02-01T08:53:01;9.00;;;4.00;;
8737;SDS011;4405;49.272;8.590;2023-02-01T08:55:27;9.93;;;4.17;;
8737;SDS011;4405;49.272;8.590;2023-02-01T08:57:54;8.30;;;4.40;;
8737;SDS011;4405;49.272;8.590;2023-02-01T09:00:20;9.63;;;4.30;;
8737;SDS011;4405;49.272;8.590;2023-02-01T09:02:47;7.10;;;3.63;;
8737;SDS011;4405;49.272;8.590;2023-02-01T09:05:15;9.07;;;3.50;;
8737;SDS011;4405;49.272;8.590;2023-02-01T09:07:44;6.20;;;3.80;;
8737;SDS011;4405;49.272;8.590;2023-02-01T09:10:10;11.87;;;3.90;;
8737;SDS011;4405;49.272;8.590;2023-02-01T09:12:37;10.47;;;4.13;;
8737;SDS011;4405;49.272;8.590;2023-02-01T09:15:04;8.20;;;3.33;;
8737;SDS011;4405;49.272;8.590;2023-02-01T09:17:32;12.03;;;3.80;;
8737;SDS011;4405;49.272;8.590;2023-02-01T09:19:58;7.50;;;3.60;;
8737;SDS011;4405;49.272;8.590;2023-02-01T09:22:26;8.67;;;3.50;;
8737;SDS011;4405;49.272;8.590;2023-02-01T09:24:52;11.37;;;3.70;;
8737;SDS011;4405;49.272;8.590;2023-02-01T09:27:19;7.87;;;3.93;;
8737;SDS011;4405;49.272;8.590;2023-02-01T09:29:45;12.37;;;3.60;;
8737;SDS011;4405;49.272;8.590;2023-02-01T09:32:14;7.00;;;3.63;;
8737;SDS011;4405;49.272;8.590;2023-02-01T09:34:41;10.77;;;3.57;;
8737;SDS011;4405;49.272;8.590;2023-02-01T09:37:08;8.43;;;3.57;;
8737;SDS011;4405;49.272;8.590;2023-02-01T09:39:35;8.43;;;3.63;;
8737;SDS011;4405;49.272;8.590;2023-02-01T09:42:05;9.90;;;3.70;;
8737;SDS011;4405;49.272;8.590;2023-02-01T09:44:39;7.20;;;3.67;;
8737;SDS011;4405;49.272;8.590;2023-02-01T09:47:10;6.67;;;3.47;;
8737;SDS011;4405;49.272;8.590;2023-02-01T09:49:37;11.27;;;3.67;;
8737;SDS011;4405;49.272;8.590;2023-02-01T09:52:10;10.73;;;3.67;;
8737;SDS011;4405;49.272;8.590;2023-02-01T09:54:40;10.53;;;3.40;;
8737;SDS011;4405;49.272;8.590;2023-02-01T09:57:08;9.70;;;3.17;;
8737;SDS011;4405;49.272;8.590;2023-02-01T09:59:38;9.20;;;3.53;;
8737;SDS011;4405;49.272;8.590;2023-02-01T10:02:17;13.13;;;3.70;;
8737;SDS011;4405;49.272;8.590;2023-02-01T10:04:44;11.17;;;3.77;;
8737;SDS011;4405;49.272;8.590;2023-02-01T10:07:13;9.27;;;3.73;;
8737;SDS011;4405;49.272;8.590;2023-02-01T10:09:50;8.77;;;3.17;;
8737;SDS011;4405;49.272;8.590;2023-02-01T10:12:28;8.80;;;3.30;;
8737;SDS011;4405;49.272;8.590;2023-02-01T10:15:01;8.93;;;3.40;;
8737;SDS011;4405;49.272;8.590;2023-02-01T10:17:31;11.77;;;3.53;;
8737;SDS011;4405;49.272;8.590;2023-02-01T10:20:03;12.07;;;3.33;;
8737;SDS011;4405;49.272;8.590;2023-02-01T10:22:37;11.37;;;3.00;;
8737;SDS011;4405;49.272;8.590;2023-02-01T10:25:09;12.13;;;3.37;;
8737;SDS011;4405;49.272;8.590;2023-02-01T10:27:39;12.73;;;3.37;;
8737;SDS011;4405;49.272;8.590;2023-02-01T10:30:12;10.23;;;3.03;;
8737;SDS011;4405;49.272;8.590;2023-02-01T10:32:40;9.83;;;3.00;;
8737;SDS011;4405;49.272;8.590;2023-02-01T10:35:09;10.83;;;2.90;;
8737;SDS011;4405;49.272;8.590;2023-02-01T10:37:39;10.23;;;3.20;;
8737;SDS011;4405;49.272;8.590;2023-02-01T10:40:12;11.23;;;3.03;;
8737;SDS011;4405;49.272;8.590;2023-02-01T10:42:40;8.10;;;2.90;;
8737;SDS011;4405;49.272;8.590;2023-02-01T10:45:11;12.80;;;3.70;;
8737;SDS011;4405;49.272;8.590;2023-02-01T10:47:38;9.47;;;2.73;;
8737;SDS011;4405;49.272;8.590;2023-02-01T10:50:08;6.57;;;2.77;;
8737;SDS011;4405;49.272;8.590;2023-02-01T10:52:41;6.77;;;2.60;;
8737;SDS011;4405;49.272;8.590;2023-02-01T10:55:26;8.63;;;3.00;;
8737;SDS011;4405;49.272;8.590;2023-02-01T10:57:56;13.20;;;3.20;;
8737;SDS011;4405;49.272;8.590;2023-02-01T11:00:22;10.73;;;3.20;;
8737;SDS011;4405;49.272;8.590;2023-02-01T11:02:49;15.20;;;4.03;;
8737;SDS011;4405;49.272;8.590;2023-02-01T11:05:16;11.43;;;3.13;;
8737;SDS011;4405;49.272;8.590;2023-02-01T11:07:46;8.60;;;3.30;;
8737;SDS011;4405;49.272;8.590;2023-02-01T11:10:34;11.47;;;3.80;;
8737;SDS011;4405;49.272;8.590;2023-02-01T11:13:02;10.17;;;3.10;;
8737;SDS011;4405;49.272;8.590;2023-02-01T11:15:29;11.93;;;3.30;;
8737;SDS011;4405;49.272;8.590;2023-02-01T11:17:55;14.47;;;3.50;;
8737;SDS011;4405;49.272;8.590;2023-02-01T11:20:33;9.93;;;2.93;;
8737;SDS011;4405;49.272;8.590;2023-02-01T11:23:01;16.50;;;3.00;;
8737;SDS011;4405;49.272;8.590;2023-02-01T11:25:27;7.90;;;3.13;;
8737;SDS011;4405;49.272;8.590;2023-02-01T11:27:54;10.83;;;3.20;;
8737;SDS011;4405;49.272;8.590;2023-02-01T11:30:26;12.63;;;3.27;;
8737;SDS011;4405;49.272;8.590;2023-02-01T11:32:53;10.07;;;3.10;;
8737;SDS011;4405;49.272;8.590;2023-02-01T11:35:20;12.37;;;3.60;;
8737;SDS011;4405;49.272;8.590;2023-02-01T11:37:48;10.07;;;3.40;;
8737;SDS011;4405;49.272;8.590;2023-02-01T11:40:23;13.23;;;3.30;;
8737;SDS011;4405;49.272;8.590;2023-02-01T11:42:55;12.97;;;3.00;;
8737;SDS011;4405;49.272;8.590;2023-02-01T11:45:26;10.73;;;2.97;;
8737;SDS011;4405;49.272;8.590;2023-02-01T11:47:53;14.90;;;3.20;;
8737;SDS011;4405;49.272;8.590;2023-02-01T11:50:21;10.67;;;2.80;;
8737;SDS011;4405;49.272;8.590;2023-02-01T11:52:54;8.73;;;3.10;;
8737;SDS011;4405;49.272;8.590;2023-02-01T11:55:36;10.47;;;3.20;;
8737;SDS011;4405;49.272;8.590;2023-02-01T11:58:12;10.07;;;3.00;;
8737;SDS011;4405;49.272;8.590;2023-02-01T12:00:49;11.23;;;3.10;;
8737;SDS011;4405;49.272;8.590;2023-02-01T12:03:39;11.23;;;3.30;;
8737;SDS011;4405;49.272;8.590;2023-02-01T12:06:12;9.03;;;2.60;;
8737;SDS011;4405;49.272;8.590;2023-02-01T12:08:50;7.57;;;3.03;;
8737;SDS011;4405;49.272;8.590;2023-02-01T12:11:26;13.90;;;3.20;;
8737;SDS011;4405;49.272;8.590;2023-02-01T12:13:55;14.07;;;3.30;;
8737;SDS011;4405;49.272;8.590;2023-02-01T12:16:28;13.53;;;3.53;;
8737;SDS011;4405;49.272;8.590;2023-02-01T12:19:15;20.47;;;5.27;;
8737;SDS011;4405;49.272;8.590;2023-02-01T12:21:48;15.50;;;5.40;;
8737;SDS011;4405;49.272;8.590;2023-02-01T12:24:28;25.43;;;8.33;;
8737;SDS011;4405;49.272;8.590;2023-02-01T12:27:00;26.83;;;8.57;;
8737;SDS011;4405;49.272;8.590;2023-02-01T12:29:43;23.93;;;7.47;;
8737;SDS011;4405;49.272;8.590;2023-02-01T12:32:19;16.73;;;3.90;;
8737;SDS011;4405;49.272;8.590;2023-02-01T12:37:35;14.90;;;4.03;;
8737;SDS011;4405;49.272;8.590;2023-02-01T12:40:07;12.10;;;3.43;;
8737;SDS011;4405;49.272;8.590;2023-02-01T12:42:40;10.30;;;2.93;;
8737;SDS011;4405;49.272;8.590;2023-02-01T12:45:11;23.80;;;4.27;;
8737;SDS011;4405;49.272;8.590;2023-02-01T12:47:41;17.23;;;3.23;;
8737;SDS011;4405;49.272;8.590;2023-02-01T12:50:12;9.37;;;2.90;;
8737;SDS011;4405;49.272;8.590;2023-02-01T12:52:42;11.03;;;3.13;;
8737;SDS011;4405;49.272;8.590;2023-02-01T12:55:15;8.60;;;2.80;;
8737;SDS011;4405;49.272;8.590;2023-02-01T12:57:44;11.97;;;3.07;;
8737;SDS011;4405;49.272;8.590;2023-02-01T13:00:15;10.67;;;2.80;;
8737;SDS011;4405;49.272;8.590;2023-02-01T13:02:49;11.97;;;2.47;;
8737;SDS011;4405;49.272;8.590;2023-02-01T13:05:17;10.60;;;2.80;;
8737;SDS011;4405;49.272;8.590;2023-02-01T13:07:46;8.80;;;2.80;;
8737;SDS011;4405;49.272;8.590;2023-02-01T13:10:15;9.67;;;2.93;;
8737;SDS011;4405;49.272;8.590;2023-02-01T13:12:44;11.47;;;2.90;;
8737;SDS011;4405;49.272;8.590;2023-02-01T13:15:11;12.13;;;2.33;;
8737;SDS011;4405;49.272;8.590;2023-02-01T13:17:38;8.47;;;2.60;;
8737;SDS011;4405;49.272;8.590;2023-02-01T13:20:13;9.67;;;2.63;;
8737;SDS011;4405;49.272;8.590;2023-02-01T13:22:42;8.20;;;2.93;;
8737;SDS011;4405;49.272;8.590;2023-02-01T13:25:11;11.73;;;2.70;;
8737;SDS011;4405;49.272;8.590;2023-02-01T13:27:38;8.97;;;2.80;;
8737;SDS011;4405;49.272;8.590;2023-02-01T13:30:06;12.30;;;3.40;;
8737;SDS011;4405;49.272;8.590;2023-02-01T13:32:41;7.27;;;2.83;;
8737;SDS011;4405;49.272;8.590;2023-02-01T13:35:17;12.97;;;3.17;;
8737;SDS011;4405;49.272;8.590;2023-02-01T13:37:56;7.77;;;2.50;;
8737;SDS011;4405;49.272;8.590;2023-02-01T13:40:33;9.33;;;2.73;;
8737;SDS011;4405;49.272;8.590;2023-02-01T13:43:02;10.10;;;2.73;;
8737;SDS011;4405;49.272;8.590;2023-02-01T13:45:31;7.00;;;2.33;;
8737;SDS011;4405;49.272;8.590;2023-02-01T13:47:59;7.23;;;2.77;;
8737;SDS011;4405;49.272;8.590;2023-02-01T13:50:28;8.53;;;2.80;;
8737;SDS011;4405;49.272;8.590;2023-02-01T13:52:56;7.23;;;2.50;;
8737;SDS011;4405;49.272;8.590;2023-02-01T13:55:28;9.10;;;3.00;;
8737;SDS011;4405;49.272;8.590;2023-02-01T14:00:40;11.77;;;2.70;;
8737;SDS011;4405;49.272;8.590;2023-02-01T14:03:09;11.23;;;3.40;;
8737;SDS011;4405;49.272;8.590;2023-02-01T14:05:57;10.57;;;2.80;;
8737;SDS011;4405;49.272;8.590;2023-02-01T14:08:36;8.67;;;2.60;;
8737;SDS011;4405;49.272;8.590;2023-02-01T14:11:03;6.13;;;2.63;;
8737;SDS011;4405;49.272;8.590;2023-02-01T14:13:30;8.90;;;2.60;;
8737;SDS011;4405;49.272;8.590;2023-02-01T14:16:10;8.93;;;2.43;;
8737;SDS011;4405;49.272;8.590;2023-02-01T14:18:56;9.93;;;2.90;;
8737;SDS011;4405;49.272;8.590;2023-02-01T14:21:25;14.07;;;2.90;;
8737;SDS011;4405;49.272;8.590;2023-02-01T14:23:57;9.27;;;3.00;;
8737;SDS011;4405;49.272;8.590;2023-02-01T14:26:24;14.37;;;3.13;;
8737;SDS011;4405;49.272;8.590;2023-02-01T14:28:53;8.17;;;2.50;;
8737;SDS011;4405;49.272;8.590;2023-02-01T14:31:27;10.07;;;2.43;;
8737;SDS011;4405;49.272;8.590;2023-02-01T14:33:56;6.17;;;2.40;;
8737;SDS011;4405;49.272;8.590;2023-02-01T14:36:25;10.10;;;2.60;;
8737;SDS011;4405;49.272;8.590;2023-02-01T14:38:52;16.20;;;3.00;;
8737;SDS011;4405;49.272;8.590;2023-02-01T14:44:14;9.43;;;2.57;;
8737;SDS011;4405;49.272;8.590;2023-02-01T14:49:28;8.30;;;2.73;;
8737;SDS011;4405;49.272;8.590;2023-02-01T14:51:55;15.73;;;3.40;;
8737;SDS011;4405;49.272;8.590;2023-02-01T14:54:22;11.67;;;2.90;;
8737;SDS011;4405;49.272;8.590;2023-02-01T14:56:49;9.60;;;2.93;;
8737;SDS011;4405;49.272;8.590;2023-02-01T14:59:16;7.43;;;2.63;;
8737;SDS011;4405;49.272;8.590;2023-02-01T15:01:48;8.00;;;2.63;;
8737;SDS011;4405;49.272;8.590;2023-02-01T15:04:16;9.33;;;2.43;;
8737;SDS011;4405;49.272;8.590;2023-02-01T15:06:47;19.20;;;3.27;;
8737;SDS011;4405;49.272;8.590;2023-02-01T15:09:15;11.93;;;2.70;;
8737;SDS011;4405;49.272;8.590;2023-02-01T15:11:59;12.47;;;2.70;;
8737;SDS011;4405;49.272;8.590;2023-02-01T15:14:26;11.67;;;2.60;;
8737;SDS011;4405;49.272;8.590;2023-02-01T15:16:52;10.37;;;2.63;;
8737;SDS011;4405;49.272;8.590;2023-02-01T15:19:20;6.27;;;2.30;;
8737;SDS011;4405;49.272;8.590;2023-02-01T15:21:47;8.43;;;2.47;;
8737;SDS011;4405;49.272;8.590;2023-02-01T15:24:20;13.17;;;3.27;;
8737;SDS011;4405;49.272;8.590;2023-02-01T15:26:46;11.53;;;2.70;;
8737;SDS011;4405;49.272;8.590;2023-02-01T15:29:13;7.57;;;2.50;;
8737;SDS011;4405;49.272;8.590;2023-02-01T15:31:41;16.20;;;3.33;;
8737;SDS011;4405;49.272;8.590;2023-02-01T15:34:07;8.30;;;2.53;;
8737;SDS011;4405;49.272;8.590;2023-02-01T15:36:34;19.13;;;2.83;;